STV1 KPBI-KIAD
Flight info
| Callsign | STV1 |
|---|---|
| Flight time | 1h 48m |
| Altitude | 39000 |
| Route | SLIDZ3 LENDS GRUBR Y299 SEELO GARIC Q129 YERBA MAYKR TRSSK CAVLR6 |
| Aircraft | CL60/M-SADE3FGHIJ3J4J7P2RWXY/HB1D1 |
Departure
| Time | 2026-05-04 11:27 |
|---|---|
| Airport | Palm Beach International Airport (KPBI) |
Arrival
| Time | 2026-05-04 13:16 |
|---|---|
| Airport | Washington Dulles International Airport (KIAD) |
| Time | Latitude | Longitude | Altitude | Speed | Heading |
|---|---|---|---|---|---|
| 2026-05-04 10:59 | 26.67914 | -80.08224 | 18 ft | 0 kts | 256° |
| 2026-05-04 11:22 | 26.67908 | -80.08251 | 17 ft | 5 kts | 256° |
| 2026-05-04 11:22 | 26.67914 | -80.08308 | 17 ft | 9 kts | 321° |
| 2026-05-04 11:23 | 26.67983 | -80.08328 | 17 ft | 8 kts | 357° |
| 2026-05-04 11:23 | 26.68013 | -80.08266 | 17 ft | 11 kts | 74° |
| 2026-05-04 11:24 | 26.68145 | -80.07793 | 17 ft | 9 kts | 2° |
| 2026-05-04 11:25 | 26.68190 | -80.07834 | 17 ft | 7 kts | 272° |
| 2026-05-04 11:25 | 26.68190 | -80.07842 | 17 ft | 0 kts | 272° |
| 2026-05-04 11:26 | 26.68216 | -80.08440 | 18 ft | 112 kts | 273° |
| 2026-05-04 11:27 | 26.68560 | -80.18576 | 4623 ft | 251 kts | 276° |
| 2026-05-04 11:28 | 26.68786 | -80.20548 | 5623 ft | 265 kts | 288° |
| 2026-05-04 11:28 | 26.69705 | -80.22321 | 6624 ft | 271 kts | 309° |
| 2026-05-04 11:28 | 26.70879 | -80.23942 | 7768 ft | 271 kts | 312° |
| 2026-05-04 11:28 | 26.72389 | -80.25224 | 8835 ft | 281 kts | 331° |
| 2026-05-04 11:29 | 26.74285 | -80.25822 | 9799 ft | 290 kts | 354° |
| 2026-05-04 11:29 | 26.76288 | -80.25377 | 10775 ft | 307 kts | 19° |
| 2026-05-04 11:29 | 26.78218 | -80.24349 | 12049 ft | 305 kts | 19° |
| 2026-05-04 11:29 | 26.79981 | -80.23132 | 13382 ft | 305 kts | 38° |
| 2026-05-04 11:31 | 26.85272 | -80.03393 | 17099 ft | 436 kts | 76° |
| 2026-05-04 11:33 | 26.90486 | -79.79372 | 21798 ft | 470 kts | 74° |
| 2026-05-04 11:33 | 26.91258 | -79.75819 | 22360 ft | 475 kts | 74° |
| 2026-05-04 11:33 | 26.92323 | -79.72317 | 22963 ft | 473 kts | 61° |
| 2026-05-04 11:34 | 26.94076 | -79.69205 | 23478 ft | 470 kts | 46° |
| 2026-05-04 11:34 | 26.96357 | -79.66615 | 23948 ft | 470 kts | 38° |
| 2026-05-04 11:34 | 26.98742 | -79.64110 | 24438 ft | 475 kts | 38° |
| 2026-05-04 11:34 | 27.01164 | -79.61550 | 25025 ft | 477 kts | 37° |
| 2026-05-04 11:35 | 27.03583 | -79.58993 | 25436 ft | 483 kts | 38° |
| 2026-05-04 11:35 | 27.06040 | -79.56393 | 26069 ft | 483 kts | 37° |
| 2026-05-04 11:35 | 27.08493 | -79.53797 | 26539 ft | 487 kts | 37° |
| 2026-05-04 11:35 | 27.10984 | -79.51160 | 26980 ft | 491 kts | 37° |
| 2026-05-04 11:36 | 27.13494 | -79.48501 | 27361 ft | 496 kts | 38° |
| 2026-05-04 11:36 | 27.16015 | -79.45830 | 27814 ft | 498 kts | 38° |
| 2026-05-04 11:36 | 27.18549 | -79.43144 | 28130 ft | 504 kts | 38° |
| 2026-05-04 11:36 | 27.21100 | -79.40438 | 28525 ft | 507 kts | 38° |
| 2026-05-04 11:37 | 27.23687 | -79.37689 | 29058 ft | 506 kts | 37° |
| 2026-05-04 11:37 | 27.26248 | -79.34969 | 29276 ft | 510 kts | 38° |
| 2026-05-04 11:37 | 27.28857 | -79.32196 | 29586 ft | 514 kts | 38° |
| 2026-05-04 11:37 | 27.31434 | -79.29456 | 29860 ft | 517 kts | 38° |
| 2026-05-04 11:38 | 27.34070 | -79.26650 | 30111 ft | 520 kts | 38° |
| 2026-05-04 11:38 | 27.36711 | -79.23837 | 30416 ft | 522 kts | 38° |
| 2026-05-04 11:38 | 27.39312 | -79.21063 | 30724 ft | 522 kts | 38° |
| 2026-05-04 11:38 | 27.41966 | -79.18233 | 30917 ft | 524 kts | 38° |
| 2026-05-04 11:39 | 27.44605 | -79.15417 | 31120 ft | 527 kts | 38° |
| 2026-05-04 11:39 | 27.47278 | -79.12563 | 31246 ft | 530 kts | 38° |
| 2026-05-04 11:40 | 27.63869 | -78.95724 | 32115 ft | 532 kts | 27° |
| 2026-05-04 11:41 | 27.67048 | -78.93628 | 32413 ft | 523 kts | 20° |
| 2026-05-04 11:41 | 27.70327 | -78.91938 | 32691 ft | 514 kts | 14° |
| 2026-05-04 11:41 | 27.73681 | -78.90649 | 32896 ft | 506 kts | 7° |
| 2026-05-04 11:41 | 27.77093 | -78.89772 | 33116 ft | 497 kts | 1° |
| 2026-05-04 11:42 | 27.80510 | -78.89238 | 33346 ft | 493 kts | 358° |
| 2026-05-04 11:42 | 27.83917 | -78.88758 | 33656 ft | 492 kts | 358° |
| 2026-05-04 11:42 | 27.87339 | -78.88274 | 33763 ft | 495 kts | 358° |
| 2026-05-04 11:42 | 27.90743 | -78.87794 | 33988 ft | 495 kts | 358° |
| 2026-05-04 11:43 | 27.94171 | -78.87308 | 34209 ft | 495 kts | 358° |
| 2026-05-04 11:43 | 27.97610 | -78.86821 | 34487 ft | 495 kts | 358° |
| 2026-05-04 11:43 | 28.01020 | -78.86340 | 34601 ft | 497 kts | 358° |
| 2026-05-04 11:43 | 28.04426 | -78.85857 | 34872 ft | 495 kts | 358° |
| 2026-05-04 11:44 | 28.07881 | -78.85368 | 35090 ft | 496 kts | 358° |
| 2026-05-04 11:44 | 28.11279 | -78.84887 | 35300 ft | 495 kts | 357° |
| 2026-05-04 11:44 | 28.14717 | -78.84400 | 35544 ft | 495 kts | 358° |
| 2026-05-04 11:44 | 28.18115 | -78.83918 | 35799 ft | 494 kts | 358° |
| 2026-05-04 11:45 | 28.21535 | -78.83433 | 36108 ft | 491 kts | 357° |
| 2026-05-04 11:45 | 28.24920 | -78.82951 | 36404 ft | 489 kts | 357° |
| 2026-05-04 11:45 | 28.28289 | -78.82475 | 36513 ft | 491 kts | 357° |
| 2026-05-04 11:45 | 28.31693 | -78.81994 | 36618 ft | 492 kts | 357° |
| 2026-05-04 11:46 | 28.35084 | -78.81514 | 36710 ft | 494 kts | 357° |
| 2026-05-04 11:46 | 28.38490 | -78.81032 | 36868 ft | 495 kts | 357° |
| 2026-05-04 11:46 | 28.41943 | -78.80540 | 37114 ft | 494 kts | 357° |
| 2026-05-04 11:46 | 28.45344 | -78.80055 | 37421 ft | 491 kts | 357° |
| 2026-05-04 11:47 | 28.48697 | -78.79578 | 37639 ft | 490 kts | 357° |
| 2026-05-04 11:47 | 28.55496 | -78.78613 | 37760 ft | 493 kts | 357° |
| 2026-05-04 11:47 | 28.58892 | -78.78129 | 37998 ft | 491 kts | 357° |
| 2026-05-04 11:48 | 28.62277 | -78.77645 | 38216 ft | 490 kts | 357° |
| 2026-05-04 11:48 | 28.65659 | -78.77162 | 38362 ft | 489 kts | 357° |
| 2026-05-04 11:48 | 28.69019 | -78.76683 | 38554 ft | 488 kts | 357° |
| 2026-05-04 11:48 | 28.72390 | -78.76201 | 38681 ft | 488 kts | 357° |
| 2026-05-04 11:49 | 28.75743 | -78.75723 | 38743 ft | 489 kts | 357° |
| 2026-05-04 11:49 | 28.79156 | -78.75236 | 38903 ft | 488 kts | 357° |
| 2026-05-04 11:49 | 28.82516 | -78.74754 | 39089 ft | 487 kts | 357° |
| 2026-05-04 11:50 | 28.89270 | -78.73790 | 39102 ft | 491 kts | 357° |
| 2026-05-04 11:50 | 28.96056 | -78.72818 | 39090 ft | 493 kts | 357° |
| 2026-05-04 11:51 | 29.02838 | -78.71842 | 39118 ft | 491 kts | 357° |
| 2026-05-04 11:51 | 29.09632 | -78.70866 | 39103 ft | 490 kts | 357° |
| 2026-05-04 11:52 | 29.16393 | -78.69890 | 39103 ft | 488 kts | 356° |
| 2026-05-04 11:52 | 29.23105 | -78.68924 | 39125 ft | 489 kts | 357° |
| 2026-05-04 11:53 | 29.29883 | -78.67947 | 39114 ft | 490 kts | 357° |
| 2026-05-04 11:53 | 29.36613 | -78.66975 | 39089 ft | 490 kts | 357° |
| 2026-05-04 11:55 | 29.63746 | -78.63151 | 39140 ft | 489 kts | 357° |
| 2026-05-04 11:56 | 29.70476 | -78.62199 | 39141 ft | 488 kts | 357° |
| 2026-05-04 11:56 | 29.77239 | -78.61244 | 39131 ft | 491 kts | 357° |
| 2026-05-04 11:57 | 29.84021 | -78.60284 | 39135 ft | 492 kts | 357° |
| 2026-05-04 11:57 | 29.90828 | -78.59315 | 39135 ft | 490 kts | 357° |
| 2026-05-04 11:58 | 29.97552 | -78.58359 | 39131 ft | 488 kts | 357° |
| 2026-05-04 11:58 | 30.04320 | -78.57396 | 39144 ft | 489 kts | 358° |
| 2026-05-04 11:59 | 30.11075 | -78.56433 | 39116 ft | 489 kts | 357° |
| 2026-05-04 11:59 | 30.17838 | -78.55468 | 39129 ft | 488 kts | 357° |
| 2026-05-04 12:00 | 30.24556 | -78.54507 | 39134 ft | 487 kts | 357° |
| 2026-05-04 12:00 | 30.31295 | -78.53543 | 39136 ft | 489 kts | 358° |
| 2026-05-04 12:01 | 30.38063 | -78.52573 | 39133 ft | 490 kts | 357° |
| 2026-05-04 12:02 | 30.61569 | -78.48843 | 39121 ft | 485 kts | 359° |
| 2026-05-04 12:03 | 30.68254 | -78.47759 | 39152 ft | 489 kts | 359° |
| 2026-05-04 12:03 | 30.74994 | -78.46661 | 39159 ft | 487 kts | 359° |
| 2026-05-04 12:04 | 30.81689 | -78.45570 | 39146 ft | 486 kts | 359° |
| 2026-05-04 12:04 | 30.88342 | -78.44482 | 39134 ft | 481 kts | 359° |
| 2026-05-04 12:05 | 30.94995 | -78.43398 | 39105 ft | 483 kts | 359° |
| 2026-05-04 12:05 | 31.01617 | -78.42315 | 39115 ft | 483 kts | 359° |
| 2026-05-04 12:06 | 31.08278 | -78.41226 | 39137 ft | 486 kts | 359° |
| 2026-05-04 12:06 | 31.14966 | -78.40128 | 39199 ft | 483 kts | 359° |
| 2026-05-04 12:07 | 31.21648 | -78.39031 | 39133 ft | 482 kts | 359° |
| 2026-05-04 12:07 | 31.28273 | -78.37941 | 39093 ft | 481 kts | 359° |
| 2026-05-04 12:08 | 31.34891 | -78.36852 | 39132 ft | 483 kts | 360° |
| 2026-05-04 12:08 | 31.41507 | -78.35761 | 39149 ft | 481 kts | 359° |
| 2026-05-04 12:09 | 31.48187 | -78.34660 | 39123 ft | 481 kts | 0° |
| 2026-05-04 12:09 | 31.54822 | -78.33560 | 39138 ft | 475 kts | 360° |
| 2026-05-04 12:10 | 31.61396 | -78.32472 | 39053 ft | 478 kts | 0° |
| 2026-05-04 12:10 | 31.67971 | -78.31382 | 39141 ft | 477 kts | 0° |
| 2026-05-04 12:11 | 31.74612 | -78.30283 | 39077 ft | 481 kts | 0° |
| 2026-05-04 12:11 | 31.81214 | -78.29184 | 39132 ft | 480 kts | 0° |
| 2026-05-04 12:12 | 31.87810 | -78.28087 | 39119 ft | 482 kts | 0° |
| 2026-05-04 12:12 | 31.94428 | -78.26982 | 39111 ft | 479 kts | 0° |
| 2026-05-04 12:14 | 32.20783 | -78.22966 | 39084 ft | 477 kts | 359° |
| 2026-05-04 12:15 | 32.27375 | -78.22004 | 39094 ft | 477 kts | 359° |
| 2026-05-04 12:15 | 32.33920 | -78.21046 | 39176 ft | 476 kts | 360° |
| 2026-05-04 12:16 | 32.40531 | -78.20079 | 39137 ft | 477 kts | 360° |
| 2026-05-04 12:16 | 32.47093 | -78.19116 | 39112 ft | 477 kts | 360° |
| 2026-05-04 12:17 | 32.53661 | -78.18150 | 39150 ft | 476 kts | 0° |
| 2026-05-04 12:17 | 32.60200 | -78.17188 | 39076 ft | 476 kts | 0° |
| 2026-05-04 12:18 | 32.66772 | -78.16218 | 39135 ft | 476 kts | 0° |
| 2026-05-04 12:18 | 32.73318 | -78.15252 | 39198 ft | 476 kts | 1° |
| 2026-05-04 12:19 | 32.79899 | -78.14279 | 39162 ft | 476 kts | 1° |
| 2026-05-04 12:19 | 32.86471 | -78.13303 | 39183 ft | 474 kts | 1° |
| 2026-05-04 12:20 | 32.93007 | -78.12335 | 39153 ft | 475 kts | 1° |
| 2026-05-04 12:20 | 32.99589 | -78.11357 | 39139 ft | 476 kts | 1° |
| 2026-05-04 12:21 | 33.06199 | -78.10372 | 39157 ft | 473 kts | 1° |
| 2026-05-04 12:21 | 33.12741 | -78.09396 | 39166 ft | 472 kts | 1° |
| 2026-05-04 12:22 | 33.19279 | -78.08421 | 39128 ft | 472 kts | 1° |
| 2026-05-04 12:22 | 33.25765 | -78.07452 | 39147 ft | 473 kts | 1° |
| 2026-05-04 12:23 | 33.32324 | -78.06471 | 39151 ft | 475 kts | 1° |
| 2026-05-04 12:23 | 33.38875 | -78.05486 | 39163 ft | 472 kts | 1° |
| 2026-05-04 12:24 | 33.45384 | -78.04508 | 39156 ft | 473 kts | 1° |
| 2026-05-04 12:24 | 33.51900 | -78.03529 | 39156 ft | 472 kts | 1° |
| 2026-05-04 12:25 | 33.58429 | -78.02544 | 39164 ft | 471 kts | 1° |
| 2026-05-04 12:25 | 33.64961 | -78.01559 | 39144 ft | 472 kts | 1° |
| 2026-05-04 12:26 | 33.71444 | -78.00580 | 39158 ft | 472 kts | 1° |
| 2026-05-04 12:26 | 33.77962 | -77.99593 | 39183 ft | 469 kts | 1° |
| 2026-05-04 12:27 | 33.84430 | -77.98612 | 39147 ft | 470 kts | 1° |
| 2026-05-04 12:27 | 33.90941 | -77.97968 | 39165 ft | 464 kts | 355° |
| 2026-05-04 12:28 | 33.97388 | -77.97751 | 39170 ft | 465 kts | 355° |
| 2026-05-04 12:28 | 34.03883 | -77.97523 | 39177 ft | 464 kts | 355° |
| 2026-05-04 12:29 | 34.10351 | -77.97296 | 39150 ft | 466 kts | 355° |
| 2026-05-04 12:29 | 34.16826 | -77.97067 | 39118 ft | 469 kts | 355° |
| 2026-05-04 12:30 | 34.23351 | -77.96833 | 39143 ft | 466 kts | 355° |
| 2026-05-04 12:30 | 34.29839 | -77.96600 | 39220 ft | 466 kts | 355° |
| 2026-05-04 12:31 | 34.36318 | -77.96368 | 39182 ft | 467 kts | 355° |
| 2026-05-04 12:31 | 34.42829 | -77.96130 | 39202 ft | 463 kts | 354° |
| 2026-05-04 12:32 | 34.52602 | -77.95778 | 39127 ft | 469 kts | 355° |
| 2026-05-04 12:33 | 34.59141 | -77.95541 | 39185 ft | 470 kts | 355° |
| 2026-05-04 12:33 | 34.65677 | -77.95303 | 39150 ft | 472 kts | 355° |
| 2026-05-04 12:34 | 34.72235 | -77.95061 | 39188 ft | 471 kts | 355° |
| 2026-05-04 12:34 | 34.78791 | -77.94823 | 39178 ft | 473 kts | 355° |
| 2026-05-04 12:35 | 34.85339 | -77.94582 | 39192 ft | 470 kts | 354° |
| 2026-05-04 12:35 | 34.91898 | -77.94342 | 39177 ft | 474 kts | 355° |
| 2026-05-04 12:36 | 34.98528 | -77.94098 | 39132 ft | 474 kts | 354° |
| 2026-05-04 12:36 | 35.05086 | -77.93855 | 39174 ft | 474 kts | 355° |
| 2026-05-04 12:37 | 35.11713 | -77.93611 | 39172 ft | 474 kts | 354° |
| 2026-05-04 12:37 | 35.18261 | -77.93368 | 39160 ft | 473 kts | 355° |
| 2026-05-04 12:38 | 35.24847 | -77.93125 | 39138 ft | 475 kts | 354° |
| 2026-05-04 12:38 | 35.31424 | -77.92876 | 39143 ft | 473 kts | 355° |
| 2026-05-04 12:39 | 35.38024 | -77.92412 | 39210 ft | 475 kts | 356° |
| 2026-05-04 12:39 | 35.41339 | -77.92165 | 39095 ft | 474 kts | 356° |
| 2026-05-04 12:39 | 35.44630 | -77.91918 | 39154 ft | 473 kts | 356° |
| 2026-05-04 12:40 | 35.51207 | -77.91429 | 39155 ft | 473 kts | 356° |
| 2026-05-04 12:40 | 35.57791 | -77.90939 | 39141 ft | 477 kts | 356° |
| 2026-05-04 12:41 | 35.64386 | -77.90446 | 39154 ft | 474 kts | 356° |
| 2026-05-04 12:41 | 35.70958 | -77.89954 | 39123 ft | 474 kts | 356° |
| 2026-05-04 12:42 | 35.77552 | -77.89462 | 39121 ft | 475 kts | 356° |
| 2026-05-04 12:42 | 35.84118 | -77.88969 | 39139 ft | 474 kts | 356° |
| 2026-05-04 12:43 | 35.90699 | -77.88474 | 39090 ft | 471 kts | 356° |
| 2026-05-04 12:43 | 35.97205 | -77.87984 | 39166 ft | 468 kts | 356° |
| 2026-05-04 12:44 | 36.03731 | -77.87496 | 39114 ft | 474 kts | 356° |
| 2026-05-04 12:44 | 36.10334 | -77.86998 | 39097 ft | 473 kts | 356° |
| 2026-05-04 12:45 | 36.16885 | -77.86504 | 39109 ft | 473 kts | 356° |
| 2026-05-04 12:45 | 36.23454 | -77.86007 | 39073 ft | 473 kts | 356° |
| 2026-05-04 12:46 | 36.29997 | -77.85510 | 39118 ft | 471 kts | 356° |
| 2026-05-04 12:46 | 36.36509 | -77.85016 | 39110 ft | 470 kts | 356° |
| 2026-05-04 12:47 | 36.43033 | -77.84520 | 39100 ft | 469 kts | 356° |
| 2026-05-04 12:47 | 36.49535 | -77.84184 | 39116 ft | 465 kts | 353° |
| 2026-05-04 12:48 | 36.55996 | -77.84095 | 39110 ft | 467 kts | 353° |
| 2026-05-04 12:48 | 36.62513 | -77.83999 | 39113 ft | 467 kts | 354° |
| 2026-05-04 12:49 | 36.69034 | -77.83903 | 39139 ft | 468 kts | 353° |
| 2026-05-04 12:49 | 36.75512 | -77.83804 | 39135 ft | 467 kts | 354° |
| 2026-05-04 12:49 | 36.78769 | -77.83758 | 38759 ft | 473 kts | 354° |
| 2026-05-04 12:50 | 36.82086 | -77.83708 | 38210 ft | 473 kts | 354° |
| 2026-05-04 12:50 | 36.85336 | -77.83656 | 37600 ft | 469 kts | 354° |
| 2026-05-04 12:50 | 36.88564 | -77.83604 | 37081 ft | 466 kts | 354° |
| 2026-05-04 12:50 | 36.91828 | -77.83553 | 36574 ft | 466 kts | 354° |
| 2026-05-04 12:51 | 36.95058 | -77.83504 | 35694 ft | 467 kts | 354° |
| 2026-05-04 12:51 | 36.98256 | -77.83451 | 35208 ft | 458 kts | 354° |
| 2026-05-04 12:51 | 37.01454 | -77.83399 | 34489 ft | 455 kts | 354° |
| 2026-05-04 12:51 | 37.04575 | -77.83351 | 33953 ft | 453 kts | 354° |
| 2026-05-04 12:52 | 37.07735 | -77.83304 | 33330 ft | 454 kts | 354° |
| 2026-05-04 12:52 | 37.10876 | -77.83256 | 32750 ft | 455 kts | 354° |
| 2026-05-04 12:52 | 37.14058 | -77.83206 | 32139 ft | 454 kts | 354° |
| 2026-05-04 12:52 | 37.17220 | -77.83157 | 31529 ft | 452 kts | 354° |
| 2026-05-04 12:53 | 37.20308 | -77.83106 | 30946 ft | 446 kts | 353° |
| 2026-05-04 12:53 | 37.23390 | -77.83055 | 30310 ft | 439 kts | 353° |
| 2026-05-04 12:53 | 37.26410 | -77.83006 | 29783 ft | 432 kts | 353° |
| 2026-05-04 12:53 | 37.29423 | -77.82960 | 29202 ft | 430 kts | 353° |
| 2026-05-04 12:54 | 37.32375 | -77.82914 | 28660 ft | 427 kts | 353° |
| 2026-05-04 12:54 | 37.35346 | -77.82869 | 28078 ft | 424 kts | 353° |
| 2026-05-04 12:54 | 37.38283 | -77.82824 | 27518 ft | 420 kts | 353° |
| 2026-05-04 12:54 | 37.41224 | -77.82778 | 26947 ft | 417 kts | 353° |
| 2026-05-04 12:55 | 37.44120 | -77.82734 | 26422 ft | 415 kts | 353° |
| 2026-05-04 12:55 | 37.46994 | -77.82690 | 25851 ft | 413 kts | 353° |
| 2026-05-04 12:55 | 37.49855 | -77.82646 | 25305 ft | 409 kts | 354° |
| 2026-05-04 12:55 | 37.52655 | -77.82604 | 24768 ft | 405 kts | 354° |
| 2026-05-04 12:56 | 37.55483 | -77.82560 | 24213 ft | 403 kts | 354° |
| 2026-05-04 12:56 | 37.58271 | -77.82517 | 23686 ft | 401 kts | 354° |
| 2026-05-04 12:56 | 37.61051 | -77.82474 | 23157 ft | 396 kts | 354° |
| 2026-05-04 12:56 | 37.63784 | -77.82407 | 22632 ft | 396 kts | 357° |
| 2026-05-04 12:57 | 37.66536 | -77.81745 | 22112 ft | 406 kts | 11° |
| 2026-05-04 12:57 | 37.67950 | -77.81044 | 21815 ft | 409 kts | 17° |
| 2026-05-04 12:57 | 37.70544 | -77.79591 | 21237 ft | 405 kts | 17° |
| 2026-05-04 12:57 | 37.73109 | -77.78155 | 20720 ft | 403 kts | 17° |
| 2026-05-04 12:58 | 37.75662 | -77.76729 | 20180 ft | 400 kts | 17° |
| 2026-05-04 12:58 | 37.78177 | -77.75324 | 19675 ft | 397 kts | 17° |
| 2026-05-04 12:58 | 37.80684 | -77.73924 | 19139 ft | 395 kts | 17° |
| 2026-05-04 12:58 | 37.83200 | -77.72518 | 18608 ft | 392 kts | 17° |
| 2026-05-04 12:59 | 37.85678 | -77.71133 | 18105 ft | 389 kts | 17° |
| 2026-05-04 12:59 | 37.88166 | -77.69743 | 17572 ft | 388 kts | 18° |
| 2026-05-04 12:59 | 37.90604 | -77.68378 | 17064 ft | 384 kts | 18° |
| 2026-05-04 12:59 | 37.93042 | -77.67014 | 16545 ft | 380 kts | 18° |
| 2026-05-04 13:00 | 37.95427 | -77.65678 | 15996 ft | 373 kts | 18° |
| 2026-05-04 13:00 | 37.97781 | -77.64357 | 15512 ft | 367 kts | 18° |
| 2026-05-04 13:00 | 38.00073 | -77.63072 | 15039 ft | 360 kts | 18° |
| 2026-05-04 13:00 | 38.02364 | -77.61787 | 14565 ft | 354 kts | 18° |
| 2026-05-04 13:01 | 38.04614 | -77.60524 | 14098 ft | 348 kts | 18° |
| 2026-05-04 13:01 | 38.06795 | -77.59223 | 13631 ft | 343 kts | 20° |
| 2026-05-04 13:01 | 38.08903 | -77.57883 | 13186 ft | 337 kts | 20° |
| 2026-05-04 13:01 | 38.10985 | -77.56556 | 12748 ft | 330 kts | 20° |
| 2026-05-04 13:02 | 38.13000 | -77.55273 | 12321 ft | 324 kts | 21° |
| 2026-05-04 13:02 | 38.15009 | -77.53993 | 11891 ft | 319 kts | 21° |
| 2026-05-04 13:02 | 38.16957 | -77.52750 | 11474 ft | 314 kts | 21° |
| 2026-05-04 13:02 | 38.18890 | -77.51513 | 11063 ft | 310 kts | 21° |
| 2026-05-04 13:03 | 38.20812 | -77.50283 | 10652 ft | 306 kts | 21° |
| 2026-05-04 13:03 | 38.22682 | -77.49086 | 10256 ft | 302 kts | 21° |
| 2026-05-04 13:03 | 38.24589 | -77.48023 | 9861 ft | 293 kts | 11° |
| 2026-05-04 13:03 | 38.26543 | -77.47330 | 9485 ft | 287 kts | 9° |
| 2026-05-04 13:04 | 38.28442 | -77.46670 | 9134 ft | 283 kts | 9° |
| 2026-05-04 13:04 | 38.30303 | -77.46004 | 9019 ft | 269 kts | 10° |
| 2026-05-04 13:04 | 38.32032 | -77.45370 | 9024 ft | 252 kts | 10° |
| 2026-05-04 13:04 | 38.33689 | -77.44775 | 9026 ft | 239 kts | 7° |
| 2026-05-04 13:05 | 38.35315 | -77.44345 | 9023 ft | 238 kts | 4° |
| 2026-05-04 13:05 | 38.36949 | -77.43972 | 9018 ft | 237 kts | 3° |
| 2026-05-04 13:05 | 38.38593 | -77.43628 | 9021 ft | 235 kts | 358° |
| 2026-05-04 13:05 | 38.40145 | -77.43929 | 9017 ft | 224 kts | 335° |
| 2026-05-04 13:06 | 38.41638 | -77.44579 | 9020 ft | 225 kts | 335° |
| 2026-05-04 13:06 | 38.43111 | -77.45216 | 8988 ft | 226 kts | 335° |
| 2026-05-04 13:06 | 38.44624 | -77.45877 | 8760 ft | 229 kts | 335° |
| 2026-05-04 13:06 | 38.46175 | -77.46333 | 8503 ft | 233 kts | 353° |
| 2026-05-04 13:07 | 38.47792 | -77.46224 | 8246 ft | 232 kts | 355° |
| 2026-05-04 13:07 | 38.49401 | -77.46294 | 7998 ft | 228 kts | 350° |
| 2026-05-04 13:07 | 38.50973 | -77.46449 | 7743 ft | 229 kts | 350° |
| 2026-05-04 13:07 | 38.52580 | -77.46544 | 7497 ft | 230 kts | 353° |
| 2026-05-04 13:08 | 38.54167 | -77.46553 | 7248 ft | 230 kts | 354° |
| 2026-05-04 13:08 | 38.55774 | -77.46533 | 6998 ft | 229 kts | 355° |
| 2026-05-04 13:08 | 38.57385 | -77.46505 | 6748 ft | 229 kts | 355° |
| 2026-05-04 13:08 | 38.58986 | -77.46481 | 6497 ft | 228 kts | 355° |
| 2026-05-04 13:09 | 38.60568 | -77.46458 | 6245 ft | 228 kts | 355° |
| 2026-05-04 13:09 | 38.62164 | -77.46433 | 5991 ft | 227 kts | 356° |
| 2026-05-04 13:09 | 38.63732 | -77.46413 | 5739 ft | 227 kts | 355° |
| 2026-05-04 13:09 | 38.65316 | -77.46390 | 5493 ft | 226 kts | 355° |
| 2026-05-04 13:10 | 38.66898 | -77.46367 | 5236 ft | 226 kts | 355° |
| 2026-05-04 13:10 | 38.68467 | -77.46344 | 5047 ft | 224 kts | 355° |
| 2026-05-04 13:10 | 38.70023 | -77.46322 | 4852 ft | 226 kts | 355° |
| 2026-05-04 13:10 | 38.71605 | -77.46300 | 4635 ft | 226 kts | 356° |
| 2026-05-04 13:11 | 38.73169 | -77.46278 | 4398 ft | 226 kts | 356° |
| 2026-05-04 13:11 | 38.74754 | -77.46255 | 4104 ft | 227 kts | 356° |
| 2026-05-04 13:11 | 38.76345 | -77.46232 | 3771 ft | 226 kts | 356° |
| 2026-05-04 13:11 | 38.77866 | -77.46207 | 3556 ft | 213 kts | 356° |
| 2026-05-04 13:12 | 38.79318 | -77.46185 | 3285 ft | 203 kts | 356° |
| 2026-05-04 13:12 | 38.80718 | -77.46166 | 2943 ft | 198 kts | 356° |
| 2026-05-04 13:12 | 38.82075 | -77.46148 | 2621 ft | 193 kts | 356° |
| 2026-05-04 13:12 | 38.83376 | -77.46129 | 2291 ft | 180 kts | 355° |
| 2026-05-04 13:13 | 38.84557 | -77.46130 | 2060 ft | 162 kts | 355° |
| 2026-05-04 13:13 | 38.85621 | -77.46112 | 1860 ft | 148 kts | 357° |
| 2026-05-04 13:13 | 38.86594 | -77.46052 | 1702 ft | 135 kts | 0° |
| 2026-05-04 13:13 | 38.87575 | -77.45949 | 1586 ft | 144 kts | 1° |
| 2026-05-04 13:14 | 38.88598 | -77.45892 | 1459 ft | 146 kts | 357° |
| 2026-05-04 13:14 | 38.89592 | -77.45933 | 1195 ft | 142 kts | 353° |
| 2026-05-04 13:14 | 38.90581 | -77.45991 | 997 ft | 144 kts | 356° |
| 2026-05-04 13:14 | 38.91579 | -77.46011 | 806 ft | 141 kts | 357° |
| 2026-05-04 13:15 | 38.92563 | -77.46011 | 585 ft | 140 kts | 360° |
| 2026-05-04 13:15 | 38.93537 | -77.45989 | 418 ft | 140 kts | 1° |
| 2026-05-04 13:15 | 38.94495 | -77.45975 | 291 ft | 129 kts | 360° |
| 2026-05-04 13:15 | 38.95253 | -77.45960 | 281 ft | 80 kts | 0° |
| 2026-05-04 13:16 | 38.95643 | -77.45954 | 278 ft | 49 kts | 360° |
| 2026-05-04 13:16 | 38.95887 | -77.45930 | 275 ft | 19 kts | 17° |
| 2026-05-04 13:16 | 38.95992 | -77.45878 | 276 ft | 14 kts | 25° |
| 2026-05-04 13:16 | 38.96085 | -77.45808 | 277 ft | 13 kts | 30° |
| 2026-05-04 13:17 | 38.96116 | -77.45725 | 279 ft | 11 kts | 123° |
| 2026-05-04 13:17 | 38.96043 | -77.45703 | 279 ft | 12 kts | 180° |
| 2026-05-04 13:17 | 38.95947 | -77.45705 | 279 ft | 15 kts | 180° |
| 2026-05-04 13:17 | 38.95830 | -77.45705 | 279 ft | 18 kts | 180° |
| 2026-05-04 13:18 | 38.95731 | -77.45690 | 279 ft | 11 kts | 128° |
| 2026-05-04 13:18 | 38.95698 | -77.45594 | 281 ft | 13 kts | 166° |
| 2026-05-04 13:18 | 38.95596 | -77.45593 | 281 ft | 16 kts | 180° |
| 2026-05-04 13:18 | 38.95478 | -77.45596 | 284 ft | 17 kts | 180° |
| 2026-05-04 13:19 | 38.95355 | -77.45597 | 285 ft | 17 kts | 179° |
| 2026-05-04 13:19 | 38.95228 | -77.45599 | 285 ft | 19 kts | 180° |
| 2026-05-04 13:19 | 38.95123 | -77.45583 | 285 ft | 11 kts | 129° |
| 2026-05-04 13:19 | 38.95116 | -77.45470 | 287 ft | 13 kts | 90° |
| 2026-05-04 13:20 | 38.95114 | -77.45338 | 287 ft | 16 kts | 90° |
| 2026-05-04 13:20 | 38.95113 | -77.45177 | 290 ft | 18 kts | 90° |
| 2026-05-04 13:20 | 38.95111 | -77.45011 | 290 ft | 19 kts | 90° |
| 2026-05-04 13:20 | 38.95110 | -77.44827 | 290 ft | 22 kts | 90° |
| 2026-05-04 13:21 | 38.95107 | -77.44617 | 291 ft | 23 kts | 89° |
| 2026-05-04 13:21 | 38.95106 | -77.44443 | 291 ft | 18 kts | 91° |
| 2026-05-04 13:21 | 38.95104 | -77.44270 | 291 ft | 21 kts | 91° |
| 2026-05-04 13:21 | 38.95103 | -77.44088 | 294 ft | 16 kts | 89° |
| 2026-05-04 13:22 | 38.95116 | -77.43979 | 294 ft | 13 kts | 44° |
| 2026-05-04 13:22 | 38.95204 | -77.43964 | 294 ft | 14 kts | 0° |
| 2026-05-04 13:22 | 38.95319 | -77.43963 | 293 ft | 18 kts | 360° |
| 2026-05-04 13:22 | 38.95446 | -77.43961 | 293 ft | 7 kts | 359° |
| 2026-05-04 13:23 | 38.95489 | -77.43999 | 293 ft | 5 kts | 277° |
| 2026-05-04 13:23 | 38.95490 | -77.44071 | 292 ft | 5 kts | 271° |
| 2026-05-04 13:23 | 38.95502 | -77.44135 | 290 ft | 9 kts | 305° |
| 2026-05-04 13:23 | 38.95533 | -77.44184 | 290 ft | 5 kts | 309° |
| 2026-05-04 13:24 | 38.95552 | -77.44200 | 289 ft | 0 kts | 79° |
| 2026-05-04 13:24 | 38.95552 | -77.44198 | 289 ft | 0 kts | 88° |